Time;durP1;ratioP1;P1;durP2;ratioP2;P2;SDS_P1;SDS_P2;PMS_P1;PMS_P2;Temp;Humidity;BMP_temperature;BMP_pressure;BME280_temperature;BME280_humidity;BME280_pressure;Samples;Min_cycle;Max_cycle;Signal;HPM_P1;HPM_P2
2021/08/18 00:09:46;;;;;;;8.90;4.05;;;20.40;65.90;;;;;;20726976;28;20038;-21
2021/08/18 00:19:47;;;;;;;7.63;3.63;;;20.40;66.00;;;;;;20761739;28;20042;-21
2021/08/18 00:29:47;;;;;;;5.18;3.08;;;20.40;65.90;;;;;;20750422;28;20133;-21
2021/08/18 00:39:48;;;;;;;6.53;3.47;;;20.40;65.90;;;;;;20755950;28;20060;-21
2021/08/18 00:49:48;;;;;;;5.03;2.92;;;20.40;65.90;;;;;;20761583;28;20046;-21
2021/08/18 00:59:50;;;;;;;9.10;3.70;;;20.40;66.00;;;;;;20751371;28;20556;-21
2021/08/18 01:09:50;;;;;;;4.35;3.38;;;20.40;65.90;;;;;;20748118;28;20041;-20
2021/08/18 01:19:51;;;;;;;6.20;3.05;;;20.40;66.10;;;;;;20749297;28;20509;-21
2021/08/18 01:29:51;;;;;;;3.15;2.30;;;20.30;65.90;;;;;;20745612;28;20041;-21
2021/08/18 01:39:53;;;;;;;5.65;2.42;;;20.30;65.90;;;;;;20744648;28;20473;-21
2021/08/18 01:49:53;;;;;;;3.58;2.28;;;20.30;66.00;;;;;;20745860;28;20096;-21
2021/08/18 01:59:54;;;;;;;4.45;2.72;;;20.30;66.00;;;;;;20743909;28;20037;-20
2021/08/18 02:09:55;;;;;;;5.18;2.38;;;20.30;65.90;;;;;;20743065;28;20048;-20
2021/08/18 02:19:55;;;;;;;3.97;1.98;;;20.30;66.00;;;;;;20742891;28;20454;-21
2021/08/18 02:29:56;;;;;;;3.10;1.98;;;20.30;66.00;;;;;;20741632;28;20439;-20
2021/08/18 02:39:56;;;;;;;4.87;2.07;;;20.30;66.10;;;;;;20741523;28;20617;-20
2021/08/18 02:49:57;;;;;;;4.65;2.10;;;20.30;66.00;;;;;;20740991;28;20479;-21
2021/08/18 02:59:58;;;;;;;2.88;1.70;;;20.30;66.10;;;;;;20744741;28;20124;-22
2021/08/18 03:09:58;;;;;;;3.47;1.70;;;20.30;66.10;;;;;;20740206;28;20080;-21
2021/08/18 03:19:59;;;;;;;6.68;1.75;;;20.30;66.00;;;;;;20739089;28;20061;-22
2021/08/18 03:29:59;;;;;;;2.75;1.70;;;20.30;66.10;;;;;;20739166;28;20121;-20
2021/08/18 03:40:00;;;;;;;2.55;1.67;;;20.30;66.00;;;;;;20737896;28;20076;-21
2021/08/18 03:50:00;;;;;;;3.08;1.77;;;20.30;66.00;;;;;;20737522;28;20044;-21
2021/08/18 04:00:01;;;;;;;4.72;1.80;;;20.30;66.10;;;;;;20736760;28;20038;-21
2021/08/18 04:10:04;;;;;;;4.60;2.15;;;20.30;66.10;;;;;;20736288;28;20038;-21
2021/08/18 04:20:05;;;;;;;7.20;1.70;;;20.20;66.10;;;;;;20749721;28;20041;-21
2021/08/18 04:30:08;;;;;;;5.03;1.60;;;20.20;66.10;;;;;;20751881;28;20421;-21
2021/08/18 04:40:11;;;;;;;4.05;1.27;;;20.20;66.20;;;;;;20758707;28;20034;-21
2021/08/18 04:50:14;;;;;;;3.53;1.27;;;20.20;66.00;;;;;;20751236;28;20057;-20
2021/08/18 05:00:16;;;;;;;4.38;1.48;;;20.20;66.20;;;;;;20748664;28;20070;-21
2021/08/18 05:10:18;;;;;;;4.90;1.95;;;20.20;66.10;;;;;;20748928;28;20417;-21
2021/08/18 05:20:19;;;;;;;5.88;1.20;;;20.20;66.20;;;;;;20754274;28;20022;-21
2021/08/18 05:30:20;;;;;;;3.55;1.52;;;20.20;66.10;;;;;;20747981;28;20030;-22
2021/08/18 05:40:21;;;;;;;4.10;1.50;;;20.20;66.10;;;;;;20749357;28;20034;-20
2021/08/18 05:50:22;;;;;;;3.13;1.77;;;20.20;66.10;;;;;;20747693;28;20046;-20
2021/08/18 06:00:22;;;;;;;51.08;6.43;;;20.20;66.10;;;;;;20745945;28;20465;-22
2021/08/18 06:10:24;;;;;;;17.60;3.45;;;20.30;65.60;;;;;;20742406;28;20065;-22
2021/08/18 06:20:25;;;;;;;9.07;2.60;;;20.30;65.30;;;;;;20741083;28;20048;-20
2021/08/18 06:30:25;;;;;;;7.03;2.78;;;20.30;65.30;;;;;;20741712;28;20033;-20
2021/08/18 06:40:26;;;;;;;8.88;2.88;;;20.30;66.00;;;;;;20739507;28;20533;-21
2021/08/18 06:50:26;;;;;;;14.88;3.45;;;20.30;66.40;;;;;;20738306;28;20042;-20
2021/08/18 07:00:27;;;;;;;14.10;3.20;;;20.30;66.40;;;;;;20737838;28;20026;-21
2021/08/18 07:10:28;;;;;;;12.93;2.92;;;20.20;66.30;;;;;;20737425;28;20038;-21
2021/08/18 07:20:28;;;;;;;12.07;4.22;;;20.30;65.80;;;;;;20740219;28;20029;-20
2021/08/18 07:30:29;;;;;;;12.43;3.28;;;20.30;64.80;;;;;;20740484;28;20052;-20
2021/08/18 07:40:29;;;;;;;16.55;4.10;;;20.40;64.50;;;;;;20739373;28;20045;-20
2021/08/18 07:50:30;;;;;;;16.73;4.30;;;20.40;64.40;;;;;;20745612;28;20446;-21
2021/08/18 08:00:38;;;;;;;26.55;5.60;;;20.40;64.40;;;;;;20754255;28;20046;-22
2021/08/18 08:10:38;;;;;;;30.83;7.50;;;20.50;64.50;;;;;;20752474;28;20046;-20
2021/08/18 08:20:39;;;;;;;19.13;7.13;;;20.40;64.50;;;;;;20751851;28;20037;-19
2021/08/18 08:30:39;;;;;;;21.45;6.78;;;20.40;64.50;;;;;;20750753;28;20502;-20
2021/08/18 08:40:43;;;;;;;19.90;6.38;;;20.50;64.30;;;;;;20749165;28;20038;-19
2021/08/18 08:50:45;;;;;;;34.55;8.38;;;20.40;64.90;;;;;;20749209;28;20044;-20
2021/08/18 09:00:46;;;;;;;29.33;6.88;;;20.40;65.80;;;;;;20736106;28;20277;-21
2021/08/18 09:11:10;;;;;;;16.67;5.40;;;20.50;65.70;;;;;;20740325;28;20124;-20
2021/08/18 09:21:29;;;;;;;16.55;6.18;;;20.50;66.10;;;;;;20739346;28;20415;-20
2021/08/18 09:31:29;;;;;;;22.58;5.63;;;20.50;66.30;;;;;;20752159;28;20037;-20
2021/08/18 09:41:30;;;;;;;29.23;6.82;;;20.50;65.90;;;;;;20779207;28;20048;-22
2021/08/18 09:51:31;;;;;;;23.63;5.45;;;20.60;66.00;;;;;;20746277;28;20121;-20
2021/08/18 10:01:31;;;;;;;21.80;4.97;;;20.60;66.00;;;;;;20742451;28;20053;-20
2021/08/18 10:11:32;;;;;;;15.82;4.32;;;20.70;65.80;;;;;;20729825;28;20049;-21
2021/08/18 10:21:34;;;;;;;11.57;4.15;;;20.60;65.50;;;;;;20743344;28;20037;-20
2021/08/18 10:31:40;;;;;;;16.30;5.10;;;20.70;66.10;;;;;;20742554;28;20040;-20
2021/08/18 10:42:07;;;;;;;17.67;4.03;;;20.70;65.40;;;;;;20740561;28;20494;-19
2021/08/18 10:52:09;;;;;;;9.50;3.40;;;20.70;65.60;;;;;;20741206;28;20042;-21
2021/08/18 11:02:48;;;;;;;10.40;3.92;;;20.80;65.50;;;;;;20737777;28;20058;-20
2021/08/18 11:12:49;;;;;;;30.63;6.05;;;20.70;65.40;;;;;;20741669;28;20490;-21
2021/08/18 11:22:57;;;;;;;26.50;4.70;;;20.80;65.30;;;;;;20738142;28;20128;-21
2021/08/18 11:33:17;;;;;;;17.50;4.32;;;20.80;65.30;;;;;;20737101;28;20037;-20
2021/08/18 11:43:35;;;;;;;12.90;3.47;;;20.70;65.10;;;;;;20736033;28;20048;-20
2021/08/18 11:53:36;;;;;;;14.07;3.13;;;20.70;64.90;;;;;;20735909;28;20120;-21
2021/08/18 12:03:38;;;;;;;23.13;3.42;;;20.70;64.50;;;;;;20734213;28;20042;-21
2021/08/18 12:13:45;;;;;;;14.00;4.20;;;20.80;65.00;;;;;;20743716;28;20034;-21
2021/08/18 12:23:47;;;;;;;12.68;3.60;;;20.70;64.90;;;;;;20734639;28;20109;-22
2021/08/18 12:34:07;;;;;;;13.45;3.28;;;20.80;65.10;;;;;;20736133;28;20038;-21
2021/08/18 12:44:12;;;;;;;13.05;4.20;;;20.70;65.10;;;;;;20751052;28;20060;-22
2021/08/18 12:54:13;;;;;;;14.57;4.15;;;20.90;65.00;;;;;;20743785;28;20038;-20
2021/08/18 13:04:13;;;;;;;13.60;3.33;;;20.80;64.80;;;;;;20749290;28;20042;-20
2021/08/18 13:14:14;;;;;;;20.88;4.03;;;20.80;65.20;;;;;;20747042;28;20029;-19
2021/08/18 13:24:15;;;;;;;16.53;3.47;;;20.80;65.40;;;;;;20743771;28;20034;-22
2021/08/18 13:34:15;;;;;;;15.77;3.50;;;20.70;65.40;;;;;;20738360;28;20496;-21
2021/08/18 13:44:19;;;;;;;9.33;3.53;;;20.80;65.30;;;;;;20727775;28;20061;-21
2021/08/18 13:54:22;;;;;;;15.23;3.20;;;20.80;65.20;;;;;;20745001;28;20481;-21
2021/08/18 14:04:22;;;;;;;11.02;2.88;;;20.70;65.60;;;;;;20745487;28;20028;-21
2021/08/18 14:14:23;;;;;;;15.30;3.75;;;20.70;65.00;;;;;;20754553;28;20069;-21
2021/08/18 14:24:25;;;;;;;6.15;2.38;;;20.70;65.00;;;;;;20744470;28;20046;-21
2021/08/18 14:34:27;;;;;;;12.45;3.15;;;20.70;65.00;;;;;;20744648;28;20026;-21
2021/08/18 14:44:27;;;;;;;7.50;2.78;;;20.70;64.90;;;;;;20742456;28;20037;-22
2021/08/18 14:54:28;;;;;;;8.40;2.42;;;20.60;64.90;;;;;;20742618;28;20505;-21
2021/08/18 15:04:28;;;;;;;4.28;2.28;;;20.60;64.80;;;;;;20741514;28;20065;-21
2021/08/18 15:14:29;;;;;;;7.10;2.40;;;20.60;64.80;;;;;;20741016;28;20213;-20
2021/08/18 15:24:30;;;;;;;6.40;2.70;;;20.60;64.70;;;;;;20740684;28;20053;-21
2021/08/18 15:34:32;;;;;;;4.63;1.90;;;20.60;64.70;;;;;;20738714;28;20025;-22
2021/08/18 15:44:34;;;;;;;4.15;1.83;;;20.70;64.70;;;;;;20730751;28;20046;-21
2021/08/18 15:54:35;;;;;;;5.97;1.80;;;20.60;64.40;;;;;;20726758;28;20044;-22
2021/08/18 16:04:36;;;;;;;3.60;1.87;;;20.60;64.30;;;;;;20734911;28;20069;-21
2021/08/18 16:14:37;;;;;;;4.53;2.10;;;20.60;64.10;;;;;;20749307;28;20034;-21
2021/08/18 16:24:38;;;;;;;4.22;1.70;;;20.60;64.20;;;;;;20754193;28;20040;-20
2021/08/18 16:34:38;;;;;;;3.13;1.75;;;20.60;64.00;;;;;;20752910;28;20479;-21
2021/08/18 16:44:39;;;;;;;6.70;2.50;;;20.60;63.70;;;;;;20751410;28;20101;-21
2021/08/18 16:54:40;;;;;;;12.73;2.95;;;20.70;63.50;;;;;;20750727;28;20034;-21
2021/08/18 17:04:40;;;;;;;8.60;4.15;;;20.60;63.20;;;;;;20750806;28;20033;-21
2021/08/18 17:14:41;;;;;;;6.03;2.95;;;20.60;63.00;;;;;;20748855;28;20041;-21
2021/08/18 17:24:42;;;;;;;14.75;6.22;;;20.60;63.30;;;;;;20746724;28;20038;-21
2021/08/18 17:34:42;;;;;;;24.27;10.23;;;20.70;64.70;;;;;;20749004;28;20050;-21
2021/08/18 17:44:43;;;;;;;23.77;8.15;;;20.70;65.50;;;;;;20747371;28;20042;-20
2021/08/18 17:54:43;;;;;;;12.23;5.82;;;20.80;65.90;;;;;;20747020;28;20044;-20
2021/08/18 18:04:44;;;;;;;17.95;7.10;;;20.70;66.10;;;;;;20745913;28;20416;-20
2021/08/18 18:14:44;;;;;;;17.08;5.25;;;20.70;65.90;;;;;;20743932;28;20042;-21
2021/08/18 18:24:45;;;;;;;22.17;7.32;;;20.70;65.60;;;;;;20741132;28;20499;-20
2021/08/18 18:34:47;;;;;;;31.98;8.35;;;20.70;65.50;;;;;;20712999;28;20506;-20
2021/08/18 18:44:47;;;;;;;28.45;7.75;;;20.80;65.90;;;;;;20694689;28;20597;-20
2021/08/18 18:54:48;;;;;;;18.10;6.00;;;21.00;66.20;;;;;;20739777;28;20073;-21
2021/08/18 19:04:48;;;;;;;24.05;7.00;;;20.90;66.20;;;;;;20719769;28;20049;-21
2021/08/18 19:14:49;;;;;;;32.25;7.45;;;21.00;66.10;;;;;;20736588;28;20045;-21
2021/08/18 19:24:50;;;;;;;21.53;6.63;;;21.10;65.90;;;;;;20735792;28;20103;-21
2021/08/18 19:34:50;;;;;;;33.20;8.20;;;21.10;66.00;;;;;;20735302;28;20038;-21
2021/08/18 19:44:51;;;;;;;35.10;7.75;;;21.10;65.90;;;;;;20737345;28;20475;-21
2021/08/18 19:54:52;;;;;;;28.97;6.97;;;21.20;66.10;;;;;;20735088;28;20030;-21
2021/08/18 20:04:52;;;;;;;38.35;7.30;;;21.10;66.30;;;;;;20733832;28;20116;-21
2021/08/18 20:14:53;;;;;;;25.52;7.65;;;21.10;66.30;;;;;;20733156;28;20403;-21
2021/08/18 20:24:54;;;;;;;37.03;7.47;;;21.00;66.20;;;;;;20733956;28;20049;-22
2021/08/18 20:34:54;;;;;;;28.45;8.85;;;21.00;66.00;;;;;;20734100;28;20095;-21
2021/08/18 20:44:55;;;;;;;25.40;7.10;;;20.90;66.30;;;;;;20733223;28;20517;-21
2021/08/18 20:54:55;;;;;;;15.98;5.72;;;20.90;66.20;;;;;;20734915;28;20104;-21
2021/08/18 21:04:56;;;;;;;18.50;6.90;;;20.90;66.30;;;;;;20747114;28;20037;-21
2021/08/18 21:14:56;;;;;;;21.40;6.45;;;20.90;66.20;;;;;;20746106;28;20045;-20
2021/08/18 21:24:57;;;;;;;26.63;6.82;;;20.90;66.30;;;;;;20747335;28;20129;-20
2021/08/18 21:34:58;;;;;;;11.00;5.60;;;20.90;66.50;;;;;;20744714;28;20441;-20
2021/08/18 21:45:00;;;;;;;14.85;6.68;;;20.80;66.40;;;;;;20743704;28;20444;-20
2021/08/18 21:55:01;;;;;;;14.95;6.88;;;20.80;66.40;;;;;;20743607;28;20030;-21
2021/08/18 22:05:01;;;;;;;12.60;5.07;;;20.80;66.40;;;;;;20741841;28;20037;-21
2021/08/18 22:15:03;;;;;;;11.90;5.85;;;20.80;66.30;;;;;;20739940;28;20734;-21
2021/08/18 22:25:08;;;;;;;13.65;6.03;;;20.90;66.30;;;;;;20740924;28;20029;-20
2021/08/18 22:35:10;;;;;;;10.98;4.68;;;20.80;66.30;;;;;;20724943;28;20580;-20
2021/08/18 22:45:12;;;;;;;13.88;5.47;;;20.80;66.10;;;;;;20740863;28;20045;-20
2021/08/18 22:55:13;;;;;;;12.05;4.75;;;20.70;65.80;;;;;;20738395;28;20029;-21
2021/08/18 23:05:14;;;;;;;10.05;5.20;;;20.70;65.80;;;;;;20737663;28;20084;-20
2021/08/18 23:15:14;;;;;;;8.40;5.07;;;20.70;65.60;;;;;;20737349;28;20121;-21
2021/08/18 23:25:15;;;;;;;9.07;5.57;;;20.70;65.50;;;;;;20745987;28;20052;-21
2021/08/18 23:35:16;;;;;;;7.80;4.63;;;20.70;66.00;;;;;;20738628;28;20494;-21
2021/08/18 23:45:16;;;;;;;6.75;4.45;;;20.70;65.50;;;;;;20782903;23;20070;-19
2021/08/18 23:55:17;;;;;;;10.50;4.47;;;20.70;65.50;;;;;;20770980;28;20038;-20
